Time;durP1;ratioP1;P1;durP2;ratioP2;P2;SDS_P1;SDS_P2;PMS_P1;PMS_P2;Temp;Humidity;BMP_temperature;BMP_pressure;BME280_temperature;BME280_humidity;BME280_pressure;Samples;Min_cycle;Max_cycle;Signal;HPM_P1;HPM_P2
2022/04/06 00:00:40;;;;;;;20.17;5.35;;;;;;;8.72;82.35;100382.03;4960106;28;20027;-90
2022/04/06 00:03:05;;;;;;;14.65;5.18;;;;;;;8.70;82.58;100379.47;4960183;28;20029;-91
2022/04/06 00:05:31;;;;;;;16.88;5.25;;;;;;;8.69;82.28;100377.78;4964407;28;20454;-90
2022/04/06 00:07:56;;;;;;;13.98;5.30;;;;;;;8.68;82.47;100380.44;4966037;28;20039;-91
2022/04/06 00:10:22;;;;;;;22.65;5.85;;;;;;;8.70;82.02;100368.28;4964986;28;20061;-91
2022/04/06 00:12:47;;;;;;;16.48;5.70;;;;;;;8.70;81.85;100373.47;4963857;28;20046;-92
2022/04/06 00:15:12;;;;;;;17.20;5.78;;;;;;;8.67;82.17;100369.19;4973646;28;20023;-90
2022/04/06 00:17:39;;;;;;;13.07;5.50;;;;;;;8.65;82.41;100370.97;4978921;28;20430;-90
2022/04/06 00:20:06;;;;;;;17.90;5.45;;;;;;;8.65;82.37;100369.25;4978148;28;20031;-91
2022/04/06 00:22:32;;;;;;;14.80;5.47;;;;;;;8.64;82.08;100364.94;4965264;28;20070;-90
2022/04/06 00:24:58;;;;;;;18.60;5.07;;;;;;;8.64;82.20;100372.72;4964748;28;20125;-91
2022/04/06 00:27:24;;;;;;;15.27;5.57;;;;;;;8.63;81.90;100367.56;4964474;28;20495;-91
2022/04/06 00:29:49;;;;;;;13.23;5.40;;;;;;;8.64;81.96;100364.94;4958224;28;20113;-90
2022/04/06 00:32:14;;;;;;;17.65;5.50;;;;;;;8.66;81.76;100364.88;4962365;28;20041;-90
2022/04/06 00:37:23;;;;;;;17.17;5.88;;;;;;;8.59;82.17;100361.59;4968399;28;20038;-92
2022/04/06 00:39:49;;;;;;;19.45;5.72;;;;;;;8.60;82.01;100360.72;4959617;28;20050;-90
2022/04/06 00:42:15;;;;;;;15.27;5.60;;;;;;;8.61;81.82;100356.41;4961537;28;20045;-90
2022/04/06 00:44:40;;;;;;;17.67;5.22;;;;;;;8.59;81.92;100355.56;4959992;28;20048;-91
2022/04/06 00:47:06;;;;;;;13.82;4.85;;;;;;;8.58;82.08;100357.31;4967243;28;20471;-92
2022/04/06 00:49:33;;;;;;;17.63;5.25;;;;;;;8.57;81.91;100347.81;4963017;28;20026;-90
2022/04/06 00:52:05;;;;;;;13.95;5.13;;;;;;;8.57;82.05;100346.97;4969289;28;21246;-91
2022/04/06 00:54:32;;;;;;;11.00;5.05;;;;;;;8.55;82.05;100347.00;4964125;28;20040;-90
2022/04/06 00:56:58;;;;;;;14.60;5.18;;;;;;;8.54;82.05;100347.88;4962955;28;20031;-91
2022/04/06 00:59:26;;;;;;;14.23;4.65;;;;;;;8.54;82.05;100353.06;4958752;28;20019;-91
2022/04/06 01:01:52;;;;;;;12.07;4.90;;;;;;;8.54;82.08;100347.06;4960418;28;20107;-89
2022/04/06 01:04:17;;;;;;;17.70;4.80;;;;;;;8.57;81.81;100346.97;4966127;28;20064;-91
2022/04/06 01:06:44;;;;;;;14.68;5.00;;;;;;;8.55;81.77;100344.41;4962370;28;20390;-90
2022/04/06 01:09:10;;;;;;;15.18;4.65;;;;;;;8.53;81.79;100338.44;4962594;28;20506;-91
2022/04/06 01:11:35;;;;;;;13.57;4.60;;;;;;;8.50;81.97;100341.94;4961155;28;20106;-91
2022/04/06 01:14:02;;;;;;;12.15;4.25;;;;;;;8.50;81.77;100330.72;4957580;28;20019;-92
2022/04/06 01:16:28;;;;;;;14.43;4.25;;;;;;;8.51;81.68;100332.44;4961576;28;20018;-91
2022/04/06 01:18:53;;;;;;;16.13;4.90;;;;;;;8.50;81.70;100328.97;4963715;28;20022;-90
2022/04/06 01:21:18;;;;;;;14.82;4.72;;;;;;;8.49;81.81;100332.47;4966049;28;20487;-91
2022/04/06 01:23:44;;;;;;;12.63;4.13;;;;;;;8.48;81.70;100330.75;4970512;28;20031;-89
2022/04/06 01:26:11;;;;;;;16.85;4.45;;;;;;;8.47;81.77;100323.00;4968734;28;20112;-89
2022/04/06 01:28:38;;;;;;;13.80;4.78;;;;;;;8.48;81.54;100329.91;4970095;28;20057;-92
2022/04/06 01:31:04;;;;;;;10.90;4.40;;;;;;;8.48;81.40;100329.91;4962917;28;20050;-90
2022/04/06 01:33:29;;;;;;;15.68;4.38;;;;;;;8.46;81.56;100329.06;4970651;28;20078;-91
2022/04/06 01:35:56;;;;;;;14.80;4.25;;;;;;;8.47;81.49;100323.00;4972154;28;20031;-92
2022/04/06 01:38:21;;;;;;;14.32;4.70;;;;;;;8.44;81.90;100323.06;4965976;28;20031;-89
2022/04/06 01:40:46;;;;;;;18.05;4.30;;;;;;;8.45;81.52;100320.47;4961183;28;20058;-89
2022/04/06 01:43:12;;;;;;;19.42;4.60;;;;;;;8.44;81.44;100323.06;4960186;28;20035;-90
2022/04/06 01:45:38;;;;;;;13.82;4.15;;;;;;;8.43;81.46;100314.47;4965771;28;20023;-91
2022/04/06 01:48:04;;;;;;;9.70;3.72;;;;;;;8.42;81.52;100322.25;4967277;28;20069;-91
2022/04/06 01:53:13;;;;;;;12.70;4.18;;;;;;;8.38;81.97;100310.25;4971155;28;20049;-90
2022/04/06 01:55:38;;;;;;;11.82;4.15;;;;;;;8.37;81.72;100314.59;4967651;28;20106;-91
2022/04/06 01:58:04;;;;;;;14.23;3.70;;;;;;;8.38;81.42;100310.25;4973223;28;20052;-91
2022/04/06 02:00:29;;;;;;;21.38;4.82;;;;;;;8.41;81.12;100317.97;4967276;28;20031;-90
2022/04/06 02:02:54;;;;;;;13.10;3.85;;;;;;;8.39;80.98;100314.56;4968288;28;20118;-91
2022/04/06 02:05:21;;;;;;;14.73;3.70;;;;;;;8.41;80.58;100315.38;4972385;28;20034;-90
2022/04/06 02:07:47;;;;;;;17.02;3.90;;;;;;;8.38;80.80;100313.72;4963065;28;20118;-91
2022/04/06 02:10:13;;;;;;;12.75;3.58;;;;;;;8.38;81.00;100315.44;4961445;28;20577;-91
2022/04/06 02:12:40;;;;;;;17.70;5.43;;;;;;;8.38;80.82;100307.66;4970890;28;20022;-90
2022/04/06 02:15:10;;;;;;;15.55;3.90;;;;;;;8.35;80.77;100306.88;4966655;28;20119;-90
2022/04/06 02:17:36;;;;;;;8.50;3.13;;;;;;;8.34;80.63;100301.72;4969673;28;20106;-91
2022/04/06 02:20:02;;;;;;;13.40;3.35;;;;;;;8.32;80.85;100296.59;4967602;28;20027;-91
2022/04/06 02:22:27;;;;;;;14.93;3.30;;;;;;;8.35;80.59;100300.81;4958479;28;20039;-92
2022/04/06 02:24:52;;;;;;;12.82;3.70;;;;;;;8.34;80.18;100294.81;4972858;28;20157;-91
2022/04/06 02:27:18;;;;;;;14.75;3.40;;;;;;;8.33;80.17;100298.28;4961485;28;20414;-90
2022/04/06 02:29:43;;;;;;;10.82;3.33;;;;;;;8.32;80.33;100308.66;4963385;28;20035;-91
2022/04/06 02:32:09;;;;;;;13.07;3.28;;;;;;;8.32;80.19;100296.59;4970234;28;20042;-91
2022/04/06 02:34:35;;;;;;;12.85;3.20;;;;;;;8.32;80.00;100295.72;4976688;28;20050;-91
2022/04/06 02:37:02;;;;;;;10.73;3.00;;;;;;;8.32;80.00;100295.72;4966999;28;20023;-91
2022/04/06 02:39:28;;;;;;;12.45;3.25;;;;;;;8.32;79.73;100295.72;4967640;28;20223;-90
2022/04/06 02:41:53;;;;;;;8.68;3.15;;;;;;;8.30;80.00;100290.59;4966714;28;20027;-91
2022/04/06 02:44:19;;;;;;;10.27;3.15;;;;;;;8.28;80.09;100289.75;4969665;28;20382;-90
2022/04/06 02:46:46;;;;;;;16.02;3.35;;;;;;;8.27;79.89;100287.22;4967876;28;20035;-91
2022/04/06 02:49:11;;;;;;;12.32;3.08;;;;;;;8.26;79.79;100286.34;4959787;28;20027;-91
2022/04/06 02:51:36;;;;;;;10.48;2.90;;;;;;;8.27;79.35;100282.88;4962015;28;20054;-90
2022/04/06 02:54:02;;;;;;;20.15;3.35;;;;;;;8.29;79.31;100283.69;4961608;28;20043;-92
2022/04/06 02:56:28;;;;;;;13.43;2.83;;;;;;;8.29;79.20;100280.22;4959450;28;20023;-91
2022/04/06 02:58:54;;;;;;;10.50;3.00;;;;;;;8.25;79.20;100274.28;4970829;28;20445;-90
2022/04/06 03:01:20;;;;;;;11.88;2.95;;;;;;;8.25;79.09;100281.22;4963799;28;20509;-91
2022/04/06 03:03:45;;;;;;;12.40;3.00;;;;;;;8.22;79.42;100273.53;4959416;28;20493;-90
2022/04/06 03:06:10;;;;;;;7.80;2.80;;;;;;;8.20;79.50;100283.91;4967409;28;20035;-91
2022/04/06 03:08:36;;;;;;;13.75;2.90;;;;;;;8.19;78.97;100269.28;4967285;28;20055;-89
2022/04/06 03:11:01;;;;;;;13.43;2.75;;;;;;;8.19;79.10;100269.28;4965248;28;20385;-89
2022/04/06 03:13:26;;;;;;;10.23;2.80;;;;;;;8.19;78.79;100269.28;4960994;28;20019;-90
2022/04/06 03:15:52;;;;;;;9.85;3.10;;;;;;;8.18;78.69;100262.41;4964418;28;20102;-91
2022/04/06 03:18:17;;;;;;;9.93;2.55;;;;;;;8.16;78.87;100265.00;4962409;28;20407;-89
2022/04/06 03:20:42;;;;;;;8.50;2.90;;;;;;;8.15;78.53;100259.88;4967228;28;20066;-90
2022/04/06 03:23:08;;;;;;;9.93;2.40;;;;;;;8.11;78.64;100260.84;4965008;28;20019;-90
2022/04/06 03:25:34;;;;;;;8.75;2.80;;;;;;;8.11;78.86;100261.69;4963625;28;20546;-90
2022/04/06 03:27:59;;;;;;;12.20;2.50;;;;;;;8.10;78.57;100248.75;4963390;28;20475;-90
2022/04/06 03:30:24;;;;;;;9.07;2.38;;;;;;;8.09;78.39;100247.94;4963761;28;20038;-91
2022/04/06 03:32:50;;;;;;;11.00;2.60;;;;;;;8.08;78.29;100242.75;4964295;28;20054;-91
2022/04/06 03:35:15;;;;;;;11.18;2.55;;;;;;;8.05;78.29;100231.59;4965994;28;20031;-90
2022/04/06 03:37:40;;;;;;;10.75;2.80;;;;;;;8.04;78.44;100232.47;4964749;28;20525;-89
2022/04/06 03:40:06;;;;;;;14.50;2.85;;;;;;;8.04;78.02;100229.88;4960458;28;20113;-91
2022/04/06 03:42:35;;;;;;;10.70;2.50;;;;;;;8.02;77.94;100223.91;4963224;28;20110;-90
2022/04/06 03:45:00;;;;;;;7.78;2.20;;;;;;;8.03;77.52;100223.00;4958033;28;20075;-90
2022/04/06 03:47:30;;;;;;;10.18;2.50;;;;;;;8.02;77.93;100216.16;4966662;28;20039;-91
2022/04/06 03:49:56;;;;;;;19.73;3.22;;;;;;;8.02;77.18;100223.06;4968013;28;21876;-90
2022/04/06 03:52:21;;;;;;;9.50;2.38;;;;;;;8.00;77.52;100223.09;4962347;28;20062;-91
2022/04/06 03:54:46;;;;;;;8.73;2.67;;;;;;;8.00;77.37;100225.69;4959202;28;20027;-91
2022/04/06 03:57:13;;;;;;;9.88;2.30;;;;;;;8.01;76.94;100232.56;4955691;28;20035;-92
2022/04/06 03:59:38;;;;;;;10.38;2.25;;;;;;;8.03;76.70;100223.00;4970880;28;20018;-89
2022/04/06 04:02:04;;;;;;;6.30;2.30;;;;;;;8.01;76.73;100219.63;4966934;28;20015;-90
2022/04/06 04:04:29;;;;;;;8.05;1.90;;;;;;;8.01;76.68;100226.53;4967325;28;20031;-90
2022/04/06 04:06:55;;;;;;;10.10;2.20;;;;;;;8.01;76.40;100223.94;4962321;28;20091;-92
2022/04/06 04:09:20;;;;;;;6.65;2.10;;;;;;;8.01;76.15;100230.00;4957589;28;20559;-91
2022/04/06 04:11:45;;;;;;;14.60;2.70;;;;;;;8.01;76.63;100223.94;4959024;28;20038;-89
2022/04/06 04:14:11;;;;;;;7.93;2.00;;;;;;;7.98;76.11;100222.28;4966241;28;20030;-91
2022/04/06 04:16:36;;;;;;;8.00;2.10;;;;;;;7.99;75.96;100221.41;4964087;28;20031;-89
2022/04/06 04:19:02;;;;;;;12.02;2.10;;;;;;;8.00;75.77;100230.88;4966978;28;20080;-91
2022/04/06 04:21:33;;;;;;;9.80;2.28;;;;;;;8.00;75.57;100217.94;4961766;28;20027;-90
2022/04/06 04:23:59;;;;;;;6.13;2.05;;;;;;;7.99;75.49;100216.22;4968868;28;20105;-90
2022/04/06 04:26:25;;;;;;;8.30;2.92;;;;;;;7.98;75.62;100222.28;4961004;28;20297;-90
2022/04/06 04:28:50;;;;;;;6.85;1.90;;;;;;;7.98;75.70;100222.28;4960913;28;20125;-90
2022/04/06 04:31:15;;;;;;;8.90;1.85;;;;;;;7.97;75.24;100217.13;4962510;28;20566;-92
2022/04/06 04:33:41;;;;;;;8.60;2.10;;;;;;;7.98;75.26;100219.69;4964869;28;20027;-90
2022/04/06 04:36:06;;;;;;;10.18;2.15;;;;;;;7.98;75.87;100213.66;4967462;28;20031;-91
2022/04/06 04:38:32;;;;;;;10.60;2.22;;;;;;;7.96;75.97;100216.28;4962060;28;20023;-90
2022/04/06 04:40:57;;;;;;;8.10;2.03;;;;;;;8.01;75.88;100208.41;4961019;28;20542;-92
2022/04/06 04:43:22;;;;;;;12.43;2.78;;;;;;;7.99;76.14;100215.34;4962901;28;20077;-90
2022/04/06 04:45:48;;;;;;;11.55;2.85;;;;;;;8.00;76.27;100204.97;4963974;28;20379;-91
2022/04/06 04:48:13;;;;;;;8.85;2.35;;;;;;;7.97;76.43;100210.22;4962042;28;20438;-91
2022/04/06 04:50:39;;;;;;;9.73;2.47;;;;;;;8.02;76.45;100210.09;4967894;28;20050;-89
2022/04/06 04:53:05;;;;;;;8.90;2.67;;;;;;;8.00;76.52;100210.16;4954594;28;20041;-89
2022/04/06 04:55:31;;;;;;;8.95;2.75;;;;;;;7.98;77.06;100204.16;4960661;28;20442;-90
2022/04/06 04:57:56;;;;;;;11.63;2.95;;;;;;;7.97;77.09;100199.88;4960369;28;20510;-91
2022/04/06 05:00:22;;;;;;;11.73;2.92;;;;;;;8.01;76.91;100198.91;4961167;28;20067;-91
2022/04/06 05:02:47;;;;;;;9.25;3.17;;;;;;;7.99;77.35;100202.41;4964879;28;20706;-90
2022/04/06 05:05:12;;;;;;;11.73;3.28;;;;;;;8.01;77.33;100191.13;4958469;28;20033;-90
2022/04/06 05:07:38;;;;;;;11.32;3.47;;;;;;;8.00;77.34;100186.84;4958654;28;20035;-91
2022/04/06 05:10:07;;;;;;;12.43;3.58;;;;;;;8.02;77.62;100195.44;4965866;28;20019;-91
2022/04/06 05:12:33;;;;;;;14.00;3.50;;;;;;;8.01;77.54;100188.53;4964647;28;20054;-90
2022/04/06 05:14:59;;;;;;;9.38;3.55;;;;;;;8.05;77.08;100181.53;4964929;28;20069;-90
2022/04/06 05:17:25;;;;;;;12.77;4.18;;;;;;;8.03;77.67;100186.72;4962921;28;20030;-91
2022/04/06 05:19:50;;;;;;;15.90;3.65;;;;;;;8.03;77.54;100191.09;4964537;28;20062;-91
2022/04/06 05:22:15;;;;;;;12.10;3.38;;;;;;;8.05;77.59;100178.94;4968991;28;20517;-91
2022/04/06 05:24:41;;;;;;;12.35;3.80;;;;;;;8.03;77.62;100176.38;4963739;28;20406;-91
2022/04/06 05:27:06;;;;;;;12.88;3.90;;;;;;;8.04;77.71;100172.91;4967434;28;20026;-91
2022/04/06 05:29:31;;;;;;;9.48;3.65;;;;;;;8.03;77.36;100166.00;4967448;28;20042;-92
2022/04/06 05:31:56;;;;;;;13.50;3.78;;;;;;;8.04;77.80;100177.25;4962381;28;20031;-92
2022/04/06 05:34:22;;;;;;;13.68;4.10;;;;;;;8.04;77.63;100174.66;4959857;28;20112;-91
2022/04/06 05:36:47;;;;;;;12.80;4.05;;;;;;;8.04;77.43;100172.91;4961095;28;20394;-91
2022/04/06 05:39:12;;;;;;;12.68;3.67;;;;;;;8.04;77.31;100170.31;4966357;28;20026;-90
2022/04/06 05:41:38;;;;;;;13.80;3.83;;;;;;;8.07;77.16;100171.97;4963139;28;20395;-90
2022/04/06 05:44:03;;;;;;;12.30;3.58;;;;;;;8.08;76.89;100172.81;4960067;28;20061;-92
2022/04/06 05:46:29;;;;;;;9.77;3.10;;;;;;;8.11;77.00;100167.56;4960204;28;21783;-91
2022/04/06 05:48:55;;;;;;;16.13;3.65;;;;;;;8.11;76.74;100162.38;4970265;28;20023;-90
2022/04/06 05:51:21;;;;;;;15.10;3.38;;;;;;;8.11;76.64;100168.44;4965647;28;20441;-90
2022/04/06 05:53:46;;;;;;;8.13;3.00;;;;;;;8.15;76.25;100171.78;4962266;28;20023;-90
2022/04/06 05:56:12;;;;;;;9.40;3.00;;;;;;;8.12;76.31;100170.09;4962377;28;20036;-91
2022/04/06 05:58:37;;;;;;;10.57;3.13;;;;;;;8.12;76.31;100164.09;4963856;28;20030;-91
2022/04/06 06:01:03;;;;;;;7.55;2.85;;;;;;;8.12;76.42;100161.50;4962627;28;20715;-91
2022/04/06 06:03:28;;;;;;;11.05;3.00;;;;;;;8.14;76.36;100164.91;4959722;28;20039;-90
2022/04/06 06:05:54;;;;;;;8.63;2.70;;;;;;;8.16;76.23;100160.53;4966165;28;20485;-90
2022/04/06 06:08:19;;;;;;;7.15;2.33;;;;;;;8.17;76.26;100173.44;4969023;28;20366;-91
2022/04/06 06:10:44;;;;;;;10.02;2.63;;;;;;;8.17;75.61;100173.44;4963033;28;20367;-92
2022/04/06 06:13:09;;;;;;;10.75;2.92;;;;;;;8.17;75.73;100167.41;4967920;28;20134;-90
2022/04/06 06:15:35;;;;;;;7.85;2.50;;;;;;;8.20;75.30;100173.34;4966031;28;20035;-91
2022/04/06 06:18:00;;;;;;;8.15;2.63;;;;;;;8.19;75.11;100169.06;4968409;28;20027;-91
2022/04/06 06:20:27;;;;;;;8.68;2.30;;;;;;;8.25;74.94;100175.81;4972669;28;20027;-91
2022/04/06 06:22:52;;;;;;;9.85;2.03;;;;;;;8.26;74.75;100171.50;4944757;28;20042;-91
2022/04/06 06:25:17;;;;;;;8.65;2.08;;;;;;;8.30;73.87;100165.31;4969984;28;20022;-91
2022/04/06 06:27:44;;;;;;;11.50;2.28;;;;;;;8.28;73.63;100167.97;4959866;28;20073;-92
2022/04/06 06:30:12;;;;;;;11.25;2.33;;;;;;;8.33;72.73;100179.06;4967447;28;20069;-89
2022/04/06 06:32:37;;;;;;;10.63;2.22;;;;;;;8.36;72.09;100172.94;4967882;28;20043;-90
2022/04/06 06:35:03;;;;;;;7.07;1.73;;;;;;;8.38;72.19;100176.34;4962268;28;20062;-92
2022/04/06 06:37:28;;;;;;;7.15;1.70;;;;;;;8.39;72.14;100172.84;4967350;28;20505;-90
2022/04/06 06:39:54;;;;;;;10.70;2.22;;;;;;;8.42;71.24;100169.31;4961971;28;20037;-91
2022/04/06 06:42:20;;;;;;;7.35;1.67;;;;;;;8.43;71.01;100176.22;4968141;28;20122;-90
2022/04/06 06:44:45;;;;;;;6.43;1.90;;;;;;;8.45;69.68;100174.44;4965904;28;20122;-91
2022/04/06 06:47:11;;;;;;;6.28;1.60;;;;;;;8.44;70.47;100170.13;4964629;28;20081;-90
2022/04/06 06:49:37;;;;;;;6.22;1.92;;;;;;;8.47;69.36;100167.47;4968203;28;20446;-91
2022/04/06 06:52:03;;;;;;;4.28;1.50;;;;;;;8.48;68.31;100167.44;4963864;28;20459;-91
2022/04/06 06:54:28;;;;;;;7.38;1.55;;;;;;;8.47;68.99;100170.06;4969928;28;20026;-94
2022/04/06 06:56:54;;;;;;;8.45;1.40;;;;;;;8.50;68.40;100159.63;4957011;28;20037;-89
2022/04/06 06:59:19;;;;;;;5.80;1.58;;;;;;;8.54;67.67;100161.22;4964824;28;20057;-90
2022/04/06 07:01:44;;;;;;;5.88;1.40;;;;;;;8.52;68.16;100147.47;4960180;28;20030;-90
2022/04/06 07:04:09;;;;;;;5.32;1.50;;;;;;;8.55;67.80;100149.97;4966011;28;20089;-89
2022/04/06 07:06:35;;;;;;;7.47;1.90;;;;;;;8.59;68.26;100143.81;4960710;28;20046;-91
2022/04/06 07:09:00;;;;;;;7.97;1.65;;;;;;;8.64;67.12;100149.72;4959834;28;20364;-92
2022/04/06 07:11:25;;;;;;;8.57;1.30;;;;;;;8.68;66.80;100149.63;4963788;28;20077;-90
2022/04/06 07:13:51;;;;;;;6.50;1.25;;;;;;;8.72;66.15;100144.31;4965837;28;20082;-90
2022/04/06 07:16:16;;;;;;;7.25;1.42;;;;;;;8.72;66.31;100153.81;4962029;28;20038;-90
2022/04/06 07:18:42;;;;;;;8.07;1.30;;;;;;;8.75;66.53;100158.91;4964163;28;20051;-90
2022/04/06 07:21:08;;;;;;;7.95;0.98;;;;;;;8.73;66.41;100152.91;4965594;28;20025;-91
2022/04/06 07:23:33;;;;;;;5.25;1.27;;;;;;;8.74;65.84;100152.03;4962154;28;20027;-91
2022/04/06 07:25:58;;;;;;;4.57;1.15;;;;;;;8.73;66.41;100146.00;4962842;28;20105;-90
2022/04/06 07:28:24;;;;;;;7.88;1.38;;;;;;;8.76;66.47;100145.06;4965130;28;20086;-89
2022/04/06 07:30:49;;;;;;;4.55;1.10;;;;;;;8.80;65.85;100136.28;4969286;28;20054;-91
2022/04/06 07:33:15;;;;;;;7.13;1.05;;;;;;;8.82;66.28;100129.31;4968110;28;20497;-90
2022/04/06 07:35:40;;;;;;;6.10;1.30;;;;;;;8.85;67.57;100131.84;4968457;28;20107;-91
2022/04/06 07:38:06;;;;;;;7.40;1.42;;;;;;;8.87;68.04;100130.03;4968171;28;20050;-92
2022/04/06 07:40:32;;;;;;;9.32;1.80;;;;;;;8.90;68.17;100131.69;4966579;28;20043;-91
2022/04/06 07:42:57;;;;;;;6.97;2.13;;;;;;;8.85;69.17;100124.03;4959952;28;20081;-93
2022/04/06 07:45:24;;;;;;;6.93;1.65;;;;;;;8.92;69.11;100119.53;4968537;28;20458;-92
2022/04/06 07:47:50;;;;;;;10.43;2.03;;;;;;;8.90;69.12;100122.13;4969685;28;20509;-92
2022/04/06 07:50:18;;;;;;;8.25;2.10;;;;;;;8.84;69.79;100111.97;4972341;28;20102;-91
2022/04/06 07:52:44;;;;;;;8.10;2.20;;;;;;;8.84;70.74;100105.91;4960473;28;20030;-92
2022/04/06 07:55:11;;;;;;;10.57;2.33;;;;;;;8.85;70.15;100112.81;4972629;28;20129;-91
2022/04/06 07:57:38;;;;;;;10.75;2.20;;;;;;;8.89;70.37;100104.03;4965612;28;20508;-92
2022/04/06 08:00:15;;;;;;;5.15;1.73;;;;;;;8.90;70.43;100098.78;4962232;28;20080;-91
2022/04/06 08:02:43;;;;;;;6.43;2.25;;;;;;;8.95;71.00;100088.31;4962272;28;21340;-91
2022/04/06 08:05:08;;;;;;;5.82;2.00;;;;;;;9.07;70.84;100087.03;4954847;28;20026;-93
2022/04/06 08:07:39;;;;;;;10.45;2.65;;;;;;;9.13;70.92;100089.44;4966187;28;20038;-90
2022/04/06 08:10:08;;;;;;;7.05;2.53;;;;;;;9.18;70.86;100090.16;4952718;28;20130;-91
2022/04/06 08:12:35;;;;;;;9.93;2.28;;;;;;;9.18;70.16;100087.56;4966879;28;20030;-91
2022/04/06 08:15:01;;;;;;;9.32;2.47;;;;;;;9.18;70.14;100110.06;4964419;28;20113;-91
2022/04/06 08:17:29;;;;;;;8.00;2.05;;;;;;;9.19;69.90;100097.06;4967381;28;20115;-92
2022/04/06 08:19:55;;;;;;;8.63;2.45;;;;;;;9.14;70.45;100098.09;4965669;28;20026;-92
2022/04/06 08:22:20;;;;;;;7.53;2.58;;;;;;;9.11;70.16;100104.22;4961796;28;20041;-91
2022/04/06 08:24:49;;;;;;;7.25;2.25;;;;;;;9.11;69.85;100105.09;4963166;28;20064;-91
2022/04/06 08:27:14;;;;;;;9.02;2.53;;;;;;;9.03;70.20;100106.22;4965810;28;20621;-92
2022/04/06 08:29:40;;;;;;;9.52;2.55;;;;;;;8.99;70.45;100105.44;4963645;28;20106;-93
2022/04/06 08:32:05;;;;;;;9.82;2.42;;;;;;;8.95;70.81;100104.69;4961364;28;20031;-93
2022/04/06 08:34:31;;;;;;;8.05;2.20;;;;;;;8.96;70.47;100102.97;4961686;28;20062;-91
2022/04/06 08:36:56;;;;;;;12.20;2.58;;;;;;;8.93;70.31;100103.06;4949763;28;20043;-90
2022/04/06 08:39:21;;;;;;;10.15;2.53;;;;;;;8.88;70.54;100116.16;4949948;28;20486;-95
2022/04/06 08:41:49;;;;;;;9.32;2.10;;;;;;;8.86;70.88;100099.81;4963717;28;20031;-94
2022/04/06 08:44:16;;;;;;;7.22;2.58;;;;;;;8.87;71.22;100106.69;4966867;28;20421;-93
2022/04/06 08:46:45;;;;;;;11.15;2.33;;;;;;;8.90;70.85;100101.38;4947178;28;20042;-92
2022/04/06 08:49:10;;;;;;;6.95;2.58;;;;;;;8.92;71.23;100094.41;4963303;28;20097;-92
2022/04/06 08:51:36;;;;;;;8.70;2.40;;;;;;;8.97;71.26;100107.22;4963444;28;20031;-91
2022/04/06 08:54:04;;;;;;;6.40;2.22;;;;;;;9.05;70.93;100097.47;4977919;28;20042;-90
2022/04/06 08:56:30;;;;;;;8.10;2.20;;;;;;;9.10;71.04;100090.41;4971709;28;20074;-93
2022/04/06 08:58:55;;;;;;;8.07;1.90;;;;;;;9.17;70.76;100085.88;4960715;28;20023;-93
2022/04/06 09:01:21;;;;;;;7.07;2.10;;;;;;;9.22;70.56;100098.69;4958578;28;20759;-91
2022/04/06 09:03:48;;;;;;;6.07;1.88;;;;;;;9.31;70.18;100089.75;4958955;28;21056;-93
2022/04/06 09:06:13;;;;;;;10.18;2.10;;;;;;;9.31;70.86;100095.78;4966631;28;20045;-93
2022/04/06 09:08:44;;;;;;;5.82;1.80;;;;;;;9.34;70.53;100085.31;4965526;28;20481;-90
2022/04/06 09:11:14;;;;;;;9.95;2.17;;;;;;;9.31;70.44;100102.72;4963185;28;20018;-91
2022/04/06 09:13:42;;;;;;;12.55;2.35;;;;;;;9.34;70.52;100100.03;4962301;28;20031;-92
2022/04/06 09:16:12;;;;;;;8.77;2.30;;;;;;;9.33;70.84;100087.97;4962334;28;20364;-91
2022/04/06 09:18:44;;;;;;;8.00;2.40;;;;;;;9.35;70.80;100092.19;4961132;28;20062;-93
2022/04/06 09:21:11;;;;;;;7.80;2.10;;;;;;;9.37;70.49;100094.75;4945349;28;20035;-93
2022/04/06 09:23:37;;;;;;;6.30;2.05;;;;;;;9.35;71.24;100091.38;4945912;28;20693;-90
2022/04/06 09:26:04;;;;;;;10.80;2.30;;;;;;;9.32;71.11;100102.66;4961495;28;20026;-92
2022/04/06 09:28:29;;;;;;;4.65;2.03;;;;;;;9.35;71.33;100097.38;4962152;28;20446;-90
2022/04/06 09:30:58;;;;;;;11.20;2.30;;;;;;;9.35;71.57;100093.97;4961077;28;20038;-93
2022/04/06 09:33:28;;;;;;;6.35;2.30;;;;;;;9.34;72.61;100089.66;4962973;28;20035;-92
2022/04/06 09:35:55;;;;;;;5.88;2.45;;;;;;;9.32;73.34;100097.47;4962412;28;20035;-91
2022/04/06 09:38:26;;;;;;;7.45;2.17;;;;;;;9.35;72.28;100093.97;4961109;28;20038;-93
2022/04/06 09:41:05;;;;;;;5.65;2.10;;;;;;;9.33;72.68;100100.94;4961994;28;20203;-92
2022/04/06 09:43:33;;;;;;;9.82;2.38;;;;;;;9.29;72.76;100096.75;4965063;28;20042;-93
2022/04/06 09:49:10;;;;;;;6.85;2.38;;;;;;;9.25;72.79;100081.25;4966209;28;20056;-94
2022/04/06 09:51:37;;;;;;;10.77;2.30;;;;;;;9.26;72.28;100080.38;4966085;28;20565;-92
2022/04/06 09:54:05;;;;;;;7.07;2.10;;;;;;;9.29;72.00;100091.56;4949222;28;20018;-94
2022/04/06 09:56:32;;;;;;;8.98;2.35;;;;;;;9.27;71.94;100086.41;4964932;28;20031;-91
2022/04/06 09:58:58;;;;;;;7.40;2.30;;;;;;;9.23;72.80;100082.22;4965809;28;20113;-92
2022/04/06 10:01:29;;;;;;;7.20;2.10;;;;;;;9.29;72.35;100086.34;4973336;28;20137;-92
2022/04/06 10:03:56;;;;;;;9.07;2.30;;;;;;;9.28;72.87;100082.94;4966755;28;20177;-94
2022/04/06 10:06:22;;;;;;;8.23;2.30;;;;;;;9.32;73.45;100083.66;4965756;28;20031;-92
2022/04/06 10:08:49;;;;;;;5.25;1.90;;;;;;;9.34;73.32;100074.09;4946763;28;20023;-93
2022/04/06 10:11:17;;;;;;;6.35;2.13;;;;;;;9.34;72.90;100074.09;4964621;28;20031;-92
2022/04/06 10:13:43;;;;;;;9.43;2.58;;;;;;;9.35;72.73;100078.38;4965816;28;20096;-92
2022/04/06 10:16:12;;;;;;;6.95;2.40;;;;;;;9.37;72.48;100071.41;4947945;28;20042;-95
2022/04/06 10:18:38;;;;;;;9.38;2.42;;;;;;;9.32;72.94;100066.34;4964369;28;20041;-91
2022/04/06 10:21:18;;;;;;;7.60;2.60;;;;;;;9.30;73.18;100062.97;4967435;28;20533;-91
2022/04/06 10:23:49;;;;;;;5.90;2.10;;;;;;;9.33;73.13;100059.41;4965914;28;20039;-91
2022/04/06 10:26:38;;;;;;;6.65;2.28;;;;;;;9.31;73.57;100061.22;4964887;28;20385;-91
2022/04/06 10:29:04;;;;;;;8.25;2.53;;;;;;;9.30;74.19;100068.16;4964036;28;20118;-91
2022/04/06 10:31:30;;;;;;;7.70;2.35;;;;;;;9.30;74.23;100067.28;4963271;28;20188;-92
2022/04/06 10:34:22;;;;;;;6.32;2.25;;;;;;;9.33;74.14;100062.84;4965648;28;20558;-91
2022/04/06 10:37:13;;;;;;;6.85;2.42;;;;;;;9.31;74.25;100058.59;4950499;28;20039;-91
2022/04/06 10:39:50;;;;;;;8.70;2.85;;;;;;;9.27;74.37;100053.50;4965276;28;20066;-90
2022/04/06 10:42:28;;;;;;;9.32;2.45;;;;;;;9.25;74.26;100052.72;4965391;28;20043;-93
2022/04/06 10:44:53;;;;;;;5.70;2.30;;;;;;;9.26;73.64;100054.41;4964700;28;20039;-90
2022/04/06 10:47:21;;;;;;;5.95;2.30;;;;;;;9.24;73.80;100058.81;4965729;28;20050;-92
2022/04/06 10:50:15;;;;;;;8.07;2.45;;;;;;;9.25;73.91;100055.31;4965525;28;20031;-90
2022/04/06 10:52:42;;;;;;;4.45;2.10;;;;;;;9.31;73.85;100045.63;4963646;28;20040;-90
2022/04/06 10:55:20;;;;;;;5.70;2.08;;;;;;;9.30;73.88;100054.31;4962134;28;20028;-92
2022/04/06 10:58:00;;;;;;;8.10;2.20;;;;;;;9.31;73.47;100050.81;4964954;28;20035;-95
2022/04/06 11:00:25;;;;;;;10.27;2.30;;;;;;;9.31;73.55;100048.22;4972902;28;20043;-90
2022/04/06 11:02:52;;;;;;;6.13;2.55;;;;;;;9.31;74.41;100045.63;4964555;28;20030;-92
2022/04/06 11:05:50;;;;;;;4.60;1.92;;;;;;;9.30;73.96;100042.19;4965852;28;20074;-92
2022/04/06 11:11:39;;;;;;;6.70;2.17;;;;;;;9.33;73.49;100047.25;4964485;28;20484;-94
2022/04/06 11:14:05;;;;;;;5.38;2.10;;;;;;;9.38;73.05;100034.16;4966258;28;20165;-92
2022/04/06 11:16:46;;;;;;;6.22;2.10;;;;;;;9.34;73.33;100030.78;4964977;28;20530;-93
2022/04/06 11:19:13;;;;;;;5.38;2.00;;;;;;;9.35;73.27;100036.84;4982146;28;20042;-93
2022/04/06 11:21:50;;;;;;;4.20;2.00;;;;;;;9.38;73.52;100029.78;4972432;28;20038;-94
2022/04/06 11:24:19;;;;;;;6.30;2.20;;;;;;;9.40;73.14;100037.53;4974579;28;20029;-94
2022/04/06 11:26:45;;;;;;;5.03;1.90;;;;;;;9.44;72.44;100022.72;4977364;28;20379;-94
2022/04/06 11:29:11;;;;;;;8.70;2.22;;;;;;;9.39;72.73;100012.50;4978419;28;20118;-95
2022/04/06 11:31:58;;;;;;;5.57;2.25;;;;;;;9.42;73.31;100014.97;4979012;28;20019;-95
2022/04/06 11:34:32;;;;;;;4.95;1.92;;;;;;;9.49;72.56;100016.44;5025223;23;20059;-93
2022/04/06 11:37:00;;;;;;;6.75;2.10;;;;;;;9.50;72.02;100010.34;4986280;28;20037;-92
2022/04/06 11:39:29;;;;;;;2.80;2.10;;;;;;;9.52;72.10;100011.16;4988574;28;20038;-93